createdAt,value
2024-05-09T01:03:00.977Z,101540
2024-05-09T01:04:01.382Z,101540
2024-05-09T01:05:01.049Z,101540
2024-05-09T01:06:00.721Z,101540
2024-05-09T01:07:00.670Z,101540
2024-05-09T01:08:01.201Z,101540
2024-05-09T01:09:00.776Z,101540
2024-05-09T01:10:00.629Z,101540
2024-05-09T01:11:00.795Z,101540
2024-05-09T01:12:00.868Z,101540
2024-05-09T01:13:01.292Z,101540
2024-05-09T01:14:00.708Z,101550
2024-05-09T01:15:00.701Z,101550
2024-05-09T01:16:01.355Z,101550
2024-05-09T01:17:00.706Z,101550
2024-05-09T01:18:03.804Z,101550
2024-05-09T01:19:02.815Z,101550
2024-05-09T01:20:00.748Z,101550
2024-05-09T01:21:00.687Z,101550
2024-05-09T01:22:00.652Z,101550
2024-05-09T01:23:05.277Z,101550
2024-05-09T01:24:00.622Z,101560
2024-05-09T01:25:00.619Z,101560
2024-05-09T01:26:00.803Z,101550
2024-05-09T01:27:00.660Z,101550
2024-05-09T01:28:00.693Z,101560
2024-05-09T01:29:00.718Z,101560
2024-05-09T01:30:00.766Z,101550
2024-05-09T01:31:00.642Z,101550
2024-05-09T01:32:00.802Z,101550
2024-05-09T01:33:01.062Z,101550
2024-05-09T01:34:00.798Z,101550
2024-05-09T01:35:00.843Z,101550
2024-05-09T01:36:00.849Z,101550
2024-05-09T01:37:00.653Z,101550
2024-05-09T01:38:00.759Z,101550
2024-05-09T01:39:00.660Z,101550
2024-05-09T01:40:00.643Z,101540
2024-05-09T01:41:00.730Z,101540
2024-05-09T01:42:00.657Z,101540
2024-05-09T01:43:00.663Z,101540
2024-05-09T01:44:00.703Z,101550
2024-05-09T01:45:00.743Z,101550
2024-05-09T01:46:00.795Z,101550
2024-05-09T01:47:00.699Z,101550
2024-05-09T01:48:01.277Z,101540
2024-05-09T01:49:00.832Z,101540
2024-05-09T01:50:00.986Z,101540
2024-05-09T01:51:00.857Z,101540
2024-05-09T01:52:00.682Z,101550
2024-05-09T01:53:00.695Z,101550
2024-05-09T01:54:01.329Z,101550
2024-05-09T01:55:04.517Z,101550
2024-05-09T01:56:00.921Z,101540
2024-05-09T01:57:00.630Z,101540
2024-05-09T01:58:00.631Z,101550
2024-05-09T01:59:00.710Z,101550
2024-05-09T02:00:00.722Z,101540
2024-05-09T02:01:00.802Z,101540
2024-05-09T02:02:00.970Z,101550
2024-05-09T02:03:00.910Z,101550
2024-05-09T02:04:00.790Z,101550
2024-05-09T02:05:00.767Z,101550
2024-05-09T02:06:00.744Z,101550
2024-05-09T02:07:00.697Z,101550
2024-05-09T02:08:00.962Z,101550
2024-05-09T02:09:00.647Z,101550
2024-05-09T02:10:00.688Z,101550
2024-05-09T02:11:00.955Z,101550
2024-05-09T02:12:01.067Z,101550
2024-05-09T02:13:00.689Z,101550
2024-05-09T02:14:00.750Z,101550
2024-05-09T02:16:00.981Z,101550
2024-05-09T02:17:00.694Z,101550
2024-05-09T02:18:00.948Z,101550
2024-05-09T03:23:00.762Z,101550
2024-05-09T03:24:00.623Z,101550
2024-05-09T03:25:00.681Z,101550
2024-05-09T03:26:00.768Z,101550
2024-05-09T03:27:00.634Z,101550
2024-05-09T03:28:00.688Z,101550
2024-05-09T03:29:00.687Z,101550
2024-05-09T03:30:00.672Z,101550
2024-05-09T03:31:00.641Z,101550
2024-05-09T03:32:00.910Z,101550
2024-05-09T03:33:00.976Z,101550
2024-05-09T03:34:00.847Z,101550
2024-05-09T03:35:00.737Z,101550
2024-05-09T03:36:01.556Z,101560
2024-05-09T03:37:00.678Z,101560
2024-05-09T03:38:00.738Z,101560
2024-05-09T03:39:00.698Z,101560
2024-05-09T03:40:00.786Z,101560
2024-05-09T03:41:00.755Z,101560
2024-05-09T03:42:00.677Z,101560
2024-05-09T03:43:00.663Z,101560
2024-05-09T03:44:00.739Z,101560
2024-05-09T03:45:00.684Z,101560
2024-05-09T03:46:00.673Z,101570
2024-05-09T03:47:00.706Z,101570
2024-05-09T03:48:00.992Z,101570
2024-05-09T03:49:00.849Z,101570
2024-05-09T03:50:00.733Z,101560
2024-05-09T03:51:00.741Z,101560
2024-05-09T03:52:00.648Z,101570
2024-05-09T03:53:01.286Z,101570
2024-05-09T03:54:00.621Z,101570
2024-05-09T03:55:00.627Z,101570
2024-05-09T03:56:00.786Z,101570
2024-05-09T03:57:00.753Z,101570
2024-05-09T03:58:00.732Z,101570
2024-05-09T03:59:00.682Z,101570
2024-05-09T04:00:00.631Z,101570
2024-05-09T04:01:00.716Z,101570
2024-05-09T04:02:00.877Z,101570
2024-05-09T04:03:01.029Z,101570
2024-05-09T04:04:00.716Z,101570
2024-05-09T04:05:00.672Z,101570
2024-05-09T04:06:00.634Z,101570
2024-05-09T04:07:00.628Z,101570
2024-05-09T04:08:00.843Z,101570
2024-05-09T04:09:00.654Z,101570
2024-05-09T04:10:00.699Z,101570
2024-05-09T04:11:00.786Z,101570
2024-05-09T04:12:00.834Z,101570
2024-05-09T04:13:01.000Z,101570
2024-05-09T04:14:00.687Z,101570
2024-05-09T04:15:00.722Z,101570
2024-05-09T04:16:00.645Z,101570
2024-05-09T04:17:00.691Z,101570
2024-05-09T04:18:01.755Z,101580
2024-05-09T04:19:00.725Z,101580
2024-05-09T04:20:00.891Z,101570
2024-05-09T04:21:02.046Z,101570
2024-05-09T04:22:00.635Z,101570
2024-05-09T04:23:00.727Z,101570
2024-05-09T04:24:00.640Z,101580
2024-05-09T04:25:00.642Z,101580
2024-05-09T04:26:00.710Z,101580
2024-05-09T04:27:00.762Z,101580
2024-05-09T04:28:00.670Z,101580
2024-05-09T04:29:00.690Z,101580
2024-05-09T04:30:00.716Z,101580
2024-05-09T04:31:00.633Z,101580
2024-05-09T04:32:00.797Z,101590
2024-05-09T04:33:01.482Z,101590
2024-05-09T04:34:00.814Z,101590
2024-05-09T04:35:00.738Z,101590
2024-05-09T04:36:00.658Z,101590
2024-05-09T04:37:00.951Z,101590
2024-05-09T04:38:00.897Z,101590
2024-05-09T04:39:00.624Z,101590
2024-05-09T04:40:00.632Z,101600
2024-05-09T04:41:00.724Z,101600
2024-05-09T04:42:00.629Z,101600
2024-05-09T04:43:00.667Z,101600
2024-05-09T04:44:00.665Z,101600
2024-05-09T04:45:00.642Z,101600
2024-05-09T04:46:00.640Z,101600
2024-05-09T04:47:00.725Z,101600
2024-05-09T04:48:01.534Z,101600
2024-05-09T04:49:00.956Z,101600
2024-05-09T04:50:00.710Z,101600
2024-05-09T04:51:00.848Z,101600
2024-05-09T04:52:00.641Z,101600
2024-05-09T04:53:00.832Z,101600
2024-05-09T04:54:00.681Z,101600
2024-05-09T04:55:00.636Z,101600
2024-05-09T04:56:00.780Z,101600
2024-05-09T04:57:00.627Z,101600
2024-05-09T04:58:00.670Z,101600
2024-05-09T04:59:00.725Z,101600
2024-05-09T05:00:00.656Z,101600
2024-05-09T05:01:00.714Z,101600
2024-05-09T05:02:00.869Z,101610
2024-05-09T05:03:00.830Z,101610
2024-05-09T05:04:00.813Z,101610
2024-05-09T05:05:00.928Z,101610
2024-05-09T05:06:00.719Z,101620
2024-05-09T05:07:02.876Z,101620
2024-05-09T05:08:00.758Z,101620
2024-05-09T05:09:00.699Z,101620
2024-05-09T05:10:00.662Z,101620
2024-05-09T05:11:00.870Z,101620
2024-05-09T05:12:01.812Z,101620
2024-05-09T05:13:00.630Z,101620
2024-05-09T05:14:00.849Z,101620
2024-05-09T05:15:00.643Z,101620
2024-05-09T05:16:00.647Z,101620
2024-05-09T05:17:00.773Z,101620
2024-05-09T05:18:00.958Z,101620
2024-05-09T05:19:00.923Z,101620
2024-05-09T05:20:00.869Z,101620
2024-05-09T05:21:01.624Z,101620
2024-05-09T05:22:00.694Z,101620
2024-05-09T05:23:01.081Z,101620
2024-05-09T05:24:00.657Z,101620
2024-05-09T05:25:00.716Z,101620
2024-05-09T05:26:00.697Z,101610
2024-05-09T05:27:00.649Z,101610
2024-05-09T05:28:00.674Z,101620
2024-05-09T05:29:00.751Z,101620
2024-05-09T05:30:00.735Z,101620
2024-05-09T05:31:00.626Z,101620
2024-05-09T05:32:00.822Z,101620
2024-05-09T05:33:01.088Z,101620
2024-05-09T05:34:00.730Z,101630
2024-05-09T05:35:00.759Z,101630
2024-05-09T05:36:00.661Z,101620
2024-05-09T05:37:00.636Z,101620
2024-05-09T05:38:01.103Z,101630
2024-05-09T05:39:00.647Z,101630
2024-05-09T05:40:00.634Z,101630
2024-05-09T05:41:02.879Z,101630
2024-05-09T05:42:00.637Z,101630
2024-05-09T05:43:00.720Z,101630
2024-05-09T05:44:00.737Z,101630
2024-05-09T05:45:00.653Z,101630
2024-05-09T05:46:00.656Z,101630
2024-05-09T05:47:00.650Z,101630
2024-05-09T05:48:02.385Z,101630
2024-05-09T05:49:00.717Z,101630
2024-05-09T05:50:00.895Z,101640
2024-05-09T05:51:04.226Z,101640
2024-05-09T05:52:00.681Z,101640
2024-05-09T05:53:00.782Z,101640
2024-05-09T05:54:00.623Z,101660
2024-05-09T05:55:00.612Z,101660
2024-05-09T05:56:00.753Z,101660
2024-05-09T05:57:00.698Z,101660
2024-05-09T05:58:01.298Z,101660
2024-05-09T05:59:00.715Z,101660
2024-05-09T06:00:00.670Z,101660
2024-05-09T06:01:00.917Z,101660
2024-05-09T06:02:00.690Z,101660
2024-05-09T06:03:00.943Z,101660
2024-05-09T06:04:00.803Z,101660
2024-05-09T06:05:01.226Z,101660
2024-05-09T06:06:01.245Z,101660
2024-05-09T06:49:00.839Z,101690
2024-05-09T06:50:00.907Z,101690
2024-05-09T06:51:00.704Z,101670
2024-05-09T06:52:00.651Z,101670
2024-05-09T06:53:00.783Z,101670
2024-05-09T06:54:00.728Z,101670
2024-05-09T06:55:00.655Z,101650
2024-05-09T06:56:00.659Z,101650
2024-05-09T06:57:00.624Z,101650
2024-05-09T06:58:00.761Z,101650
2024-05-09T06:59:01.159Z,101640
2024-05-09T07:00:01.003Z,101640
2024-05-09T07:01:02.233Z,101660
2024-05-09T07:02:01.434Z,101660
2024-05-09T07:03:05.601Z,101670
2024-05-09T07:04:00.743Z,101670
2024-05-09T07:05:01.148Z,101640
2024-05-09T07:06:00.731Z,101640
2024-05-09T07:07:00.632Z,101640
2024-05-09T07:08:00.724Z,101640
2024-05-09T07:10:00.688Z,101640
2024-05-09T07:11:00.799Z,101660
2024-05-09T07:12:00.751Z,101660
2024-05-09T07:13:00.698Z,101680
2024-05-09T07:14:00.674Z,101680
2024-05-09T07:20:02.500Z,101690
2024-05-09T07:21:00.932Z,101700
2024-05-09T07:22:00.284Z,101700
2024-05-09T07:23:01.372Z,101720
2024-05-09T07:24:00.269Z,101720
2024-05-09T07:25:00.284Z,101720
2024-05-09T07:26:00.318Z,101720
2024-05-09T07:27:00.289Z,101740
2024-05-09T07:28:00.280Z,101740
2024-05-09T07:29:00.318Z,101750
2024-05-09T07:30:00.270Z,101750
2024-05-09T07:31:00.285Z,101740
2024-05-09T07:32:00.272Z,101740
2024-05-09T07:33:00.859Z,101700
2024-05-09T07:34:00.638Z,101700
2024-05-09T07:35:00.317Z,101690
2024-05-09T07:36:00.312Z,101690
2024-05-09T07:37:00.289Z,101710
2024-05-09T07:38:00.374Z,101710
2024-05-09T07:39:00.296Z,101740
2024-05-09T07:40:00.285Z,101740
2024-05-09T07:41:01.859Z,101720
2024-05-09T07:42:00.287Z,101720
2024-05-09T07:43:02.002Z,101740
2024-05-09T07:44:00.339Z,101740
2024-05-09T07:45:17.702Z,101740
2024-05-09T07:46:28.609Z,101740
2024-05-09T07:50:35.901Z,101740
2024-05-09T07:51:47.461Z,101740
2024-05-09T07:53:00.906Z,101740
2024-05-09T07:53:24.958Z,101740
2024-05-09T07:53:35.960Z,101730
2024-05-09T07:54:01.402Z,101730
2024-05-09T07:55:00.779Z,101740
2024-05-09T07:56:00.480Z,101740
2024-05-09T07:57:00.395Z,101730
2024-05-09T07:58:00.326Z,101730
2024-05-09T07:59:00.277Z,101720
2024-05-09T08:00:00.294Z,101720
2024-05-09T08:01:00.518Z,101710
2024-05-09T08:02:00.601Z,101710
2024-05-09T08:03:00.380Z,101720
2024-05-09T08:04:00.489Z,101720
2024-05-09T08:05:00.453Z,101710
2024-05-09T08:06:00.378Z,101710
2024-05-09T08:07:00.409Z,101710
2024-05-09T08:08:00.302Z,101710
2024-05-09T08:09:05.267Z,101710
2024-05-09T08:10:00.316Z,101710
2024-05-09T08:11:00.860Z,101710
2024-05-09T08:12:00.267Z,101710
2024-05-09T08:13:00.296Z,101700
2024-05-09T08:14:00.295Z,101700
2024-05-09T08:15:00.264Z,101690
2024-05-09T08:16:00.629Z,101690
2024-05-09T08:17:00.360Z,101680
2024-05-09T08:18:00.927Z,101680
2024-05-09T08:19:00.606Z,101670
2024-05-09T08:20:01.911Z,101670
2024-05-09T08:21:01.028Z,101690
2024-05-09T08:22:00.297Z,101690
2024-05-09T08:23:00.279Z,101700
2024-05-09T08:24:00.268Z,101700
2024-05-09T08:25:00.411Z,101700
2024-05-09T08:26:00.337Z,101700
2024-05-09T08:27:00.688Z,101690
2024-05-09T08:28:02.348Z,101690
2024-05-09T08:29:00.264Z,101680
2024-05-09T08:30:00.367Z,101680
2024-05-09T08:31:01.747Z,101680
2024-05-09T08:32:00.383Z,101680
2024-05-09T08:33:00.563Z,101680
2024-05-09T08:34:00.478Z,101680
2024-05-09T08:35:00.399Z,101690
2024-05-09T08:36:00.306Z,101690
2024-05-09T08:37:06.089Z,101680
2024-05-09T08:38:01.716Z,101680
2024-05-09T08:39:00.426Z,101670
2024-05-09T08:40:00.481Z,101670
2024-05-09T08:41:02.480Z,101650
2024-05-09T08:42:00.570Z,101650
2024-05-09T08:43:01.184Z,101670
2024-05-09T08:44:00.313Z,101670
2024-05-09T08:45:00.821Z,101670
2024-05-09T08:46:00.950Z,101670
2024-05-09T08:47:00.983Z,101670
2024-05-09T08:48:01.335Z,101670
2024-05-09T08:49:01.839Z,101690
2024-05-09T08:50:01.773Z,101690
2024-05-09T08:51:00.278Z,101690
2024-05-09T08:52:00.373Z,101690
2024-05-09T08:53:00.331Z,101660
2024-05-09T08:54:00.393Z,101660
2024-05-09T08:55:00.391Z,101670
2024-05-09T08:56:00.823Z,101670
2024-05-09T08:57:01.168Z,101690
2024-05-09T08:58:02.214Z,101690
2024-05-09T08:59:00.692Z,101690
2024-05-09T09:00:03.453Z,101690
2024-05-09T09:01:01.311Z,101700
2024-05-09T09:02:01.188Z,101700
2024-05-09T09:03:00.351Z,101690
2024-05-09T09:04:01.380Z,101690
2024-05-09T09:05:04.781Z,101680
2024-05-09T09:06:01.483Z,101680
2024-05-09T09:07:01.056Z,101680
2024-05-09T09:08:03.196Z,101680
2024-05-09T09:09:00.988Z,101680
2024-05-09T09:10:01.530Z,101680
2024-05-09T09:11:00.386Z,101660
2024-05-09T09:12:00.313Z,101660
2024-05-09T09:13:00.779Z,101660
2024-05-09T09:14:00.293Z,101660
2024-05-09T09:15:00.396Z,101670
2024-05-09T09:16:00.536Z,101670
2024-05-09T09:17:10.350Z,101660
2024-05-09T09:18:00.828Z,101660
2024-05-09T09:19:00.431Z,101640
2024-05-09T09:20:00.635Z,101640
2024-05-09T09:21:00.844Z,101660
2024-05-09T09:22:00.379Z,101660
2024-05-09T09:23:00.287Z,101680
2024-05-09T09:24:00.374Z,101680
2024-05-09T09:25:00.314Z,101680
2024-05-09T09:26:00.433Z,101680
2024-05-09T09:27:00.310Z,101670
2024-05-09T09:28:00.498Z,101670
2024-05-09T09:29:00.343Z,101670
2024-05-09T09:30:00.297Z,101670
2024-05-09T09:31:00.702Z,101670
2024-05-09T09:32:00.886Z,101670
2024-05-09T09:33:00.485Z,101670
2024-05-09T09:34:04.747Z,101670
2024-05-09T09:35:00.390Z,101680
2024-05-09T09:36:01.360Z,101680
2024-05-09T09:37:03.668Z,101670
2024-05-09T09:38:01.982Z,101670
2024-05-09T09:39:00.656Z,101660
2024-05-09T09:40:01.726Z,101660
2024-05-09T09:41:05.672Z,101670
2024-05-09T09:42:01.035Z,101670
2024-05-09T09:43:00.554Z,101670
2024-05-09T09:44:01.606Z,101670
2024-05-09T09:45:05.138Z,101680
2024-05-09T09:46:00.622Z,101680
2024-05-09T09:47:01.005Z,101680
2024-05-09T09:48:00.645Z,101680
2024-05-09T09:49:00.495Z,101680
2024-05-09T09:50:00.766Z,101680
2024-05-09T09:51:00.704Z,101680
2024-05-09T09:52:00.640Z,101680
2024-05-09T09:53:02.279Z,101670
2024-05-09T09:54:01.712Z,101670
2024-05-09T09:55:00.870Z,101660
2024-05-09T09:56:00.663Z,101660
2024-05-09T09:57:03.254Z,101660
2024-05-09T09:58:02.584Z,101660
2024-05-09T09:59:02.962Z,101660
2024-05-09T10:00:00.372Z,101660
2024-05-09T10:01:02.195Z,101650
2024-05-09T10:02:00.481Z,101650
2024-05-09T10:03:01.432Z,101640
2024-05-09T10:04:00.876Z,101640
2024-05-09T10:05:00.501Z,101640
2024-05-09T10:06:00.913Z,101640
2024-05-09T10:07:01.990Z,101640
2024-05-09T10:08:02.902Z,101640
2024-05-09T10:09:00.372Z,101630
2024-05-09T10:10:00.379Z,101630
2024-05-09T10:11:02.428Z,101630
2024-05-09T10:12:09.490Z,101630
2024-05-09T10:14:00.716Z,101630
2024-05-09T10:15:06.122Z,101620
2024-05-09T10:16:06.044Z,101620
2024-05-09T10:17:03.107Z,101630
2024-05-09T10:18:03.144Z,101630
2024-05-09T10:19:00.943Z,101630
2024-05-09T10:20:07.197Z,101630
2024-05-09T10:21:00.851Z,101630
2024-05-09T10:22:01.283Z,101630
2024-05-09T10:23:00.445Z,101630
2024-05-09T10:24:02.121Z,101630
2024-05-09T10:25:05.218Z,101640
2024-05-09T10:26:01.627Z,101640
2024-05-09T10:27:02.684Z,101640
2024-05-09T10:28:00.404Z,101640
2024-05-09T10:29:19.673Z,101650
2024-05-09T10:30:01.031Z,101650
2024-05-09T10:31:06.627Z,101640
2024-05-09T10:32:00.731Z,101640
2024-05-09T10:33:00.418Z,101620
2024-05-09T10:34:00.615Z,101620
2024-05-09T10:36:02.450Z,101630
2024-05-09T10:37:02.045Z,101610
2024-05-09T10:38:04.363Z,101610
2024-05-09T10:39:00.560Z,101620
2024-05-09T10:40:01.051Z,101620
2024-05-09T10:41:01.081Z,101610
2024-05-09T10:42:00.474Z,101610
2024-05-09T10:43:04.492Z,101620
2024-05-09T10:44:00.431Z,101620
2024-05-09T10:45:00.556Z,101610
2024-05-09T10:46:00.364Z,101610
2024-05-09T10:47:00.460Z,101590
2024-05-09T10:48:00.605Z,101590
2024-05-09T10:49:03.344Z,101600
2024-05-09T10:50:00.395Z,101600
2024-05-09T10:51:00.432Z,101580
2024-05-09T10:52:02.328Z,101580
2024-05-09T10:53:01.152Z,101580
2024-05-09T10:54:00.331Z,101580
2024-05-09T10:55:01.661Z,101600
2024-05-09T10:56:00.709Z,101600
2024-05-09T10:57:00.316Z,101600
2024-05-09T10:58:00.405Z,101600
2024-05-09T10:59:03.074Z,101600
2024-05-09T11:00:00.330Z,101600
2024-05-09T11:01:04.376Z,101590
2024-05-09T11:02:02.593Z,101590
2024-05-09T11:03:00.453Z,101580
2024-05-09T11:04:00.640Z,101580
2024-05-09T11:05:00.430Z,101580
2024-05-09T11:06:00.672Z,101580
2024-05-09T11:07:05.403Z,101570
2024-05-09T11:08:00.501Z,101570
2024-05-09T11:09:00.478Z,101580
2024-05-09T11:10:00.535Z,101580
2024-05-09T11:11:01.375Z,101580
2024-05-09T11:12:01.227Z,101580
2024-05-09T11:13:00.433Z,101570
2024-05-09T11:14:09.941Z,101570
2024-05-09T11:15:00.334Z,101570
2024-05-09T11:16:00.812Z,101570
2024-05-09T11:17:00.921Z,101580
2024-05-09T11:18:00.479Z,101580
2024-05-09T11:19:00.619Z,101580
2024-05-09T11:20:00.500Z,101580
2024-05-09T11:21:00.759Z,101580
2024-05-09T11:22:00.394Z,101580
2024-05-09T11:23:04.256Z,101590
2024-05-09T11:24:00.362Z,101590
2024-05-09T11:25:00.532Z,101570
2024-05-09T11:26:00.343Z,101570
2024-05-09T11:27:02.332Z,101570
2024-05-09T11:28:00.790Z,101570
2024-05-09T11:29:00.328Z,101560
2024-05-09T11:30:00.326Z,101560
2024-05-09T11:31:03.416Z,101560
2024-05-09T11:32:00.366Z,101560
2024-05-09T11:33:00.587Z,101560
2024-05-09T11:34:00.351Z,101560
2024-05-09T11:35:00.294Z,101560
2024-05-09T11:36:00.318Z,101560
2024-05-09T11:37:00.388Z,101570
2024-05-09T11:38:00.315Z,101570
2024-05-09T11:39:00.338Z,101550
2024-05-09T11:40:00.443Z,101550
2024-05-09T11:41:01.506Z,101540
2024-05-09T11:42:00.362Z,101540
2024-05-09T11:43:00.336Z,101550
2024-05-09T11:44:00.731Z,101550
2024-05-09T11:45:00.401Z,101550
2024-05-09T11:46:01.274Z,101550
2024-05-09T11:47:01.125Z,101550
2024-05-09T11:48:00.618Z,101550
2024-05-09T11:49:00.578Z,101550
2024-05-09T11:50:00.514Z,101550
2024-05-09T11:51:00.313Z,101540
2024-05-09T11:52:00.594Z,101540
2024-05-09T11:53:00.350Z,101550
2024-05-09T11:54:00.359Z,101550
2024-05-09T11:55:00.380Z,101550
2024-05-09T11:56:00.349Z,101550
2024-05-09T11:57:00.369Z,101560
2024-05-09T11:58:01.176Z,101560
2024-05-09T11:59:00.327Z,101560
2024-05-09T12:00:00.333Z,101560
2024-05-09T12:01:00.633Z,101560
2024-05-09T12:02:00.377Z,101560
2024-05-09T12:03:00.385Z,101520
2024-05-09T12:04:00.762Z,101520
2024-05-09T12:05:00.434Z,101520
2024-05-09T12:06:00.630Z,101520
2024-05-09T12:07:00.386Z,101540
2024-05-09T12:08:00.435Z,101540
2024-05-09T12:09:00.314Z,101550
2024-05-09T12:10:00.399Z,101550
2024-05-09T12:11:00.594Z,101540
2024-05-09T12:12:00.313Z,101540
2024-05-09T12:13:00.382Z,101540
2024-05-09T12:14:00.408Z,101540
2024-05-09T12:15:00.400Z,101550
2024-05-09T12:16:00.480Z,101550
2024-05-09T12:17:00.602Z,101560
2024-05-09T12:18:03.484Z,101560
2024-05-09T12:19:00.549Z,101550
2024-05-09T12:20:00.322Z,101550
2024-05-09T12:21:01.006Z,101530
2024-05-09T12:22:00.353Z,101530
2024-05-09T12:23:00.310Z,101520
2024-05-09T12:24:00.342Z,101520
2024-05-09T12:25:00.386Z,101540
2024-05-09T12:26:00.518Z,101540
2024-05-09T12:27:00.344Z,101520
2024-05-09T12:28:00.787Z,101520
2024-05-09T12:29:00.316Z,101530
2024-05-09T12:30:00.373Z,101530
2024-05-09T12:31:00.391Z,101530
2024-05-09T12:32:00.355Z,101530
2024-05-09T12:33:00.487Z,101530
2024-05-09T12:34:00.496Z,101530
2024-05-09T12:35:00.462Z,101530
2024-05-09T12:36:00.417Z,101530
2024-05-09T12:37:00.413Z,101550
2024-05-09T12:38:00.450Z,101550
2024-05-09T12:39:00.937Z,101530
2024-05-09T12:40:00.369Z,101530
2024-05-09T12:41:01.280Z,101540
2024-05-09T12:42:00.363Z,101540
2024-05-09T12:43:00.358Z,101550
2024-05-09T12:44:00.783Z,101550
2024-05-09T12:45:00.320Z,101550
2024-05-09T12:46:00.430Z,101550
2024-05-09T12:47:00.318Z,101550
2024-05-09T12:48:00.587Z,101550
2024-05-09T12:49:00.828Z,101530
2024-05-09T12:50:00.447Z,101530
2024-05-09T12:51:00.372Z,101550
2024-05-09T12:52:00.366Z,101550
2024-05-09T12:53:00.747Z,101550
2024-05-09T12:54:00.315Z,101550
2024-05-09T12:55:00.492Z,101550
2024-05-09T12:56:02.496Z,101550
2024-05-09T12:57:00.365Z,101540
2024-05-09T12:58:00.455Z,101540
2024-05-09T12:59:00.311Z,101530
2024-05-09T13:00:00.383Z,101530
2024-05-09T13:01:00.573Z,101510
2024-05-09T13:02:01.191Z,101510
2024-05-09T13:03:00.712Z,101520
2024-05-09T13:04:00.583Z,101520
2024-05-09T13:05:00.370Z,101540
2024-05-09T13:06:00.350Z,101540
2024-05-09T13:07:00.378Z,101540
2024-05-09T13:08:00.424Z,101540
2024-05-09T13:09:00.354Z,101540
2024-05-09T13:10:00.665Z,101540
2024-05-09T13:11:00.403Z,101520
2024-05-09T13:12:00.440Z,101520
2024-05-09T13:13:01.353Z,101510
2024-05-09T13:14:00.311Z,101510
2024-05-09T13:15:00.346Z,101510
2024-05-09T13:16:00.383Z,101510
2024-05-09T13:17:00.430Z,101510
2024-05-09T13:18:03.058Z,101510
2024-05-09T13:19:00.348Z,101490
2024-05-09T13:20:00.311Z,101490
2024-05-09T13:21:00.720Z,101490
2024-05-09T13:22:00.342Z,101490
2024-05-09T13:23:01.115Z,101490
2024-05-09T13:24:00.542Z,101490
2024-05-09T13:25:00.326Z,101490
2024-05-09T13:26:00.391Z,101490
2024-05-09T13:27:00.442Z,101500
2024-05-09T13:28:00.333Z,101500
2024-05-09T13:29:00.304Z,101500
2024-05-09T13:30:00.309Z,101500
2024-05-09T13:31:00.328Z,101490
2024-05-09T13:32:00.486Z,101490
2024-05-09T13:33:00.458Z,101490
2024-05-09T13:34:00.424Z,101490
2024-05-09T13:35:00.306Z,101490
2024-05-09T13:36:00.339Z,101490
2024-05-09T13:37:00.409Z,101480
2024-05-09T13:38:00.523Z,101480
2024-05-09T13:39:00.405Z,101500
2024-05-09T13:40:00.593Z,101500
2024-05-09T13:41:00.420Z,101490
2024-05-09T13:42:00.321Z,101490
2024-05-09T13:43:00.415Z,101480
2024-05-09T13:44:00.303Z,101480
2024-05-09T13:45:00.316Z,101480
2024-05-09T13:46:00.341Z,101480
2024-05-09T13:47:00.729Z,101480
2024-05-09T13:48:00.577Z,101480
2024-05-09T13:49:01.464Z,101450
2024-05-09T13:50:00.439Z,101450
2024-05-09T13:51:00.388Z,101460
2024-05-09T13:52:00.612Z,101460
2024-05-09T13:53:00.651Z,101480
2024-05-09T13:54:00.330Z,101480
2024-05-09T13:55:00.423Z,101480
2024-05-09T13:56:00.328Z,101480
2024-05-09T13:57:00.333Z,101460
2024-05-09T13:58:00.560Z,101460
2024-05-09T13:59:00.323Z,101460
2024-05-09T14:00:00.515Z,101460
2024-05-09T14:01:00.558Z,101460
2024-05-09T14:02:00.397Z,101460
2024-05-09T14:03:00.479Z,101460
2024-05-09T14:04:00.618Z,101460
2024-05-09T14:05:00.505Z,101440
2024-05-09T14:06:00.432Z,101440
2024-05-09T14:07:00.423Z,101450
2024-05-09T14:08:00.347Z,101450
2024-05-09T14:09:00.463Z,101440
2024-05-09T14:10:00.540Z,101440
2024-05-09T14:11:00.544Z,101440
2024-05-09T14:12:00.323Z,101440
2024-05-09T14:13:00.535Z,101450
2024-05-09T14:14:00.522Z,101450
2024-05-09T14:15:00.319Z,101430
2024-05-09T14:16:00.636Z,101430
2024-05-09T14:17:00.454Z,101440
2024-05-09T14:18:00.351Z,101440
2024-05-09T14:19:00.669Z,101440
2024-05-09T14:20:00.347Z,101440
2024-05-09T14:21:01.530Z,101440
2024-05-09T14:22:00.316Z,101440
2024-05-09T14:23:00.906Z,101420
2024-05-09T14:24:00.326Z,101420
2024-05-09T14:25:00.421Z,101420
2024-05-09T14:26:00.303Z,101420
2024-05-09T14:27:00.426Z,101430
2024-05-09T14:28:00.718Z,101430
2024-05-09T14:29:00.342Z,101420
2024-05-09T14:30:00.384Z,101420
2024-05-09T14:31:00.366Z,101430
2024-05-09T14:32:01.081Z,101430
2024-05-09T14:33:00.437Z,101420
2024-05-09T14:34:00.532Z,101420
2024-05-09T14:35:00.451Z,101430
2024-05-09T14:36:00.622Z,101430
2024-05-09T14:37:00.475Z,101420
2024-05-09T14:38:00.387Z,101420
2024-05-09T14:39:00.437Z,101420
2024-05-09T14:40:00.401Z,101420
2024-05-09T14:41:00.397Z,101420
2024-05-09T14:42:00.331Z,101420
2024-05-09T14:43:02.591Z,101420
2024-05-09T14:44:00.318Z,101420
2024-05-09T14:45:00.365Z,101420
2024-05-09T14:46:00.482Z,101420
2024-05-09T14:47:00.332Z,101430
2024-05-09T14:48:00.841Z,101430
2024-05-09T14:49:00.517Z,101430
2024-05-09T14:50:00.336Z,101430
2024-05-09T14:51:00.304Z,101410
2024-05-09T14:52:00.343Z,101410
2024-05-09T14:53:00.315Z,101410
2024-05-09T14:54:00.329Z,101410
2024-05-09T14:55:01.128Z,101410
2024-05-09T14:57:00.317Z,101420
2024-05-09T14:58:00.581Z,101420
2024-05-09T14:59:00.405Z,101410
2024-05-09T15:00:00.390Z,101410
2024-05-09T15:01:02.730Z,101400
2024-05-09T15:02:00.467Z,101400
2024-05-09T15:03:00.726Z,101400
2024-05-09T15:04:00.873Z,101400
2024-05-09T15:05:01.270Z,101420
2024-05-09T15:06:00.412Z,101420
2024-05-09T15:07:00.491Z,101440
2024-05-09T15:08:00.316Z,101440
2024-05-09T15:09:00.392Z,101430
2024-05-09T15:10:00.354Z,101430
2024-05-09T15:11:00.352Z,101420
2024-05-09T15:12:00.558Z,101420
2024-05-09T15:13:00.458Z,101420
2024-05-09T15:14:00.309Z,101420
2024-05-09T15:15:00.352Z,101440
2024-05-09T15:16:00.607Z,101440
2024-05-09T15:17:00.364Z,101430
2024-05-09T15:18:00.589Z,101430
2024-05-09T15:19:00.469Z,101420
2024-05-09T15:20:00.470Z,101420
2024-05-09T15:21:01.148Z,101420
2024-05-09T15:22:00.356Z,101420
2024-05-09T15:23:00.481Z,101420
2024-05-09T15:24:00.320Z,101420
2024-05-09T15:25:00.398Z,101410
2024-05-09T15:26:00.524Z,101410
2024-05-09T15:27:00.410Z,101410
2024-05-09T15:28:00.443Z,101410
2024-05-09T15:29:00.333Z,101410